Briefing drone pour Saint-cernin

Rechercher une autre localisation

Conditions de vol :


Nous sommes le : Mardi 29 septembre 2020
Il est 22:23 UTC (00:24 LT)

Lever de soleil : 05:19 UTC (07:19 LT)
Coucher de soleil : 18:01 UTC (20:01 LT)

Météo

L'essentiel des conditions de vol

VIGILANCE MÉTÉO FRANCE - Cantal (15)
Pas de vigilances particulieres
CARTE TEMSI
CARTES DES FRONTS
METAR de LFLW
LFLW 282200Z AUTO 07002KT 8000 FEW004 SCT032 05/04 Q1021

Date d'émission: 28/09/2020
Heure d'émission: 22:00 UTC
Vent: 070° pour 2 KT (4 km/h)
Visibilité horizontale: 8000 m
Plafond :
- Peu de nuages à 400ft (122m)
- Nuages épars à 3200ft (975m)
Température: 5 °C
Point de rosée: 4 °C
Humidité: 93%
Pression (QNH): 1021 hPa
Prévision 24h pour Aurillac (9 km)
Vent : 71° pour 1 KT (3 km/h)
Temperature Maxi: 10 °C
Temperature Min: 10 °C
Humidité : 72%
Condition : Couvert



Warning: count(): Parameter must be an array or an object that implements Countable in /homepages/6/d509196549/htdocs/droneoxygene/briefing.php on line 743
WEBCAM POUR SAINT-CERNIN

Réglementation

Voler en sécurité

CARTES AERONAUTIQUE 1/500.000
CARTES VAC (LFLW)
SUP AIP




Chargement des AIP...
NOTAM (SAINT-CERNIN + Terrain à proximité / FIR )




Chargement des NOTAMS...
CONTACT PREFECTURE 15


Avertissement : Les données mises à disposition sont indicatives. Oxygène Drone ne pourra être tenu responsable de dégâts causés aux biens et aux personnes.